sensor_id;sensor_type;location;lat;lon;timestamp;P1;P2;P0
47982;PMS5003;33751;50.816;-1.214;2022-07-24T00:01:35;37;33;
47982;PMS5003;33751;50.816;-1.214;2022-07-24T00:04:02;46;29;
47982;PMS5003;33751;50.816;-1.214;2022-07-24T00:06:29;44;32;
47982;PMS5003;33751;50.816;-1.214;2022-07-24T00:08:57;49;33;
47982;PMS5003;33751;50.816;-1.214;2022-07-24T00:11:24;42;27;
47982;PMS5003;33751;50.816;-1.214;2022-07-24T00:13:51;47;33;
47982;PMS5003;33751;50.816;-1.214;2022-07-24T00:16:18;59;45;
47982;PMS5003;33751;50.816;-1.214;2022-07-24T00:18:46;63;48;
47982;PMS5003;33751;50.816;-1.214;2022-07-24T00:21:13;29;14;
47982;PMS5003;33751;50.816;-1.214;2022-07-24T00:23:39;48;37;
47982;PMS5003;33751;50.816;-1.214;2022-07-24T00:26:06;44;31;
47982;PMS5003;33751;50.816;-1.214;2022-07-24T00:28:33;51;36;
47982;PMS5003;33751;50.816;-1.214;2022-07-24T00:31:00;60;42;
47982;PMS5003;33751;50.816;-1.214;2022-07-24T00:33:28;36;21;
47982;PMS5003;33751;50.816;-1.214;2022-07-24T00:35:55;52;38;
47982;PMS5003;33751;50.816;-1.214;2022-07-24T00:38:21;45;45;
47982;PMS5003;33751;50.816;-1.214;2022-07-24T00:40:48;35;22;
47982;PMS5003;33751;50.816;-1.214;2022-07-24T00:43:16;39;27;
47982;PMS5003;33751;50.816;-1.214;2022-07-24T00:45:43;29;16;
47982;PMS5003;33751;50.816;-1.214;2022-07-24T00:48:10;40;30;
47982;PMS5003;33751;50.816;-1.214;2022-07-24T00:50:38;48;34;
47982;PMS5003;33751;50.816;-1.214;2022-07-24T00:53:05;40;26;
47982;PMS5003;33751;50.816;-1.214;2022-07-24T00:55:33;44;30;
47982;PMS5003;33751;50.816;-1.214;2022-07-24T00:58:00;34;30;
47982;PMS5003;33751;50.816;-1.214;2022-07-24T01:00:27;25;22;
47982;PMS5003;33751;50.816;-1.214;2022-07-24T01:02:55;35;24;
47982;PMS5003;33751;50.816;-1.214;2022-07-24T01:05:22;32;21;
47982;PMS5003;33751;50.816;-1.214;2022-07-24T01:07:49;49;34;
47982;PMS5003;33751;50.816;-1.214;2022-07-24T01:10:16;29;20;
47982;PMS5003;33751;50.816;-1.214;2022-07-24T01:12:44;32;23;
47982;PMS5003;33751;50.816;-1.214;2022-07-24T01:15:11;38;26;
47982;PMS5003;33751;50.816;-1.214;2022-07-24T01:17:39;46;31;
47982;PMS5003;33751;50.816;-1.214;2022-07-24T01:20:08;42;28;
47982;PMS5003;33751;50.816;-1.214;2022-07-24T01:22:37;41;32;
47982;PMS5003;33751;50.816;-1.214;2022-07-24T01:25:04;41;24;
47982;PMS5003;33751;50.816;-1.214;2022-07-24T01:27:32;50;32;
47982;PMS5003;33751;50.816;-1.214;2022-07-24T01:29:59;44;36;
47982;PMS5003;33751;50.816;-1.214;2022-07-24T01:32:26;43;30;
47982;PMS5003;33751;50.816;-1.214;2022-07-24T01:34:53;39;34;
47982;PMS5003;33751;50.816;-1.214;2022-07-24T01:37:20;41;27;
47982;PMS5003;33751;50.816;-1.214;2022-07-24T01:39:47;41;32;
47982;PMS5003;33751;50.816;-1.214;2022-07-24T01:42:15;30;27;
47982;PMS5003;33751;50.816;-1.214;2022-07-24T01:44:41;50;39;
47982;PMS5003;33751;50.816;-1.214;2022-07-24T01:47:08;46;31;
47982;PMS5003;33751;50.816;-1.214;2022-07-24T01:49:35;60;46;
47982;PMS5003;33751;50.816;-1.214;2022-07-24T01:52:02;73;57;
47982;PMS5003;33751;50.816;-1.214;2022-07-24T01:54:29;46;33;
47982;PMS5003;33751;50.816;-1.214;2022-07-24T01:56:56;57;39;
47982;PMS5003;33751;50.816;-1.214;2022-07-24T01:59:23;66;53;
47982;PMS5003;33751;50.816;-1.214;2022-07-24T02:01:50;54;38;
47982;PMS5003;33751;50.816;-1.214;2022-07-24T02:04:17;58;45;
47982;PMS5003;33751;50.816;-1.214;2022-07-24T02:06:43;55;41;
47982;PMS5003;33751;50.816;-1.214;2022-07-24T02:09:11;51;38;
47982;PMS5003;33751;50.816;-1.214;2022-07-24T02:11:37;63;48;
47982;PMS5003;33751;50.816;-1.214;2022-07-24T02:14:04;56;42;
47982;PMS5003;33751;50.816;-1.214;2022-07-24T02:16:30;51;38;
47982;PMS5003;33751;50.816;-1.214;2022-07-24T02:18:57;45;45;
47982;PMS5003;33751;50.816;-1.214;2022-07-24T02:21:25;61;52;
47982;PMS5003;33751;50.816;-1.214;2022-07-24T02:23:52;66;54;
47982;PMS5003;33751;50.816;-1.214;2022-07-24T02:26:19;41;41;
47982;PMS5003;33751;50.816;-1.214;2022-07-24T02:28:46;74;59;
47982;PMS5003;33751;50.816;-1.214;2022-07-24T02:31:13;57;47;
47982;PMS5003;33751;50.816;-1.214;2022-07-24T02:33:40;62;45;
47982;PMS5003;33751;50.816;-1.214;2022-07-24T02:36:08;59;47;
47982;PMS5003;33751;50.816;-1.214;2022-07-24T02:38:35;61;47;
47982;PMS5003;33751;50.816;-1.214;2022-07-24T02:41:02;50;36;
47982;PMS5003;33751;50.816;-1.214;2022-07-24T02:43:29;59;47;
47982;PMS5003;33751;50.816;-1.214;2022-07-24T02:45:56;56;43;
47982;PMS5003;33751;50.816;-1.214;2022-07-24T02:48:23;57;48;
47982;PMS5003;33751;50.816;-1.214;2022-07-24T02:50:50;63;53;
47982;PMS5003;33751;50.816;-1.214;2022-07-24T02:53:16;59;45;
47982;PMS5003;33751;50.816;-1.214;2022-07-24T02:55:44;59;56;
47982;PMS5003;33751;50.816;-1.214;2022-07-24T02:58:11;68;52;
47982;PMS5003;33751;50.816;-1.214;2022-07-24T03:00:38;75;65;
47982;PMS5003;33751;50.816;-1.214;2022-07-24T03:03:05;63;52;
47982;PMS5003;33751;50.816;-1.214;2022-07-24T03:05:32;68;52;
47982;PMS5003;33751;50.816;-1.214;2022-07-24T03:07:59;66;64;
47982;PMS5003;33751;50.816;-1.214;2022-07-24T03:10:25;67;51;
47982;PMS5003;33751;50.816;-1.214;2022-07-24T03:12:52;55;47;
47982;PMS5003;33751;50.816;-1.214;2022-07-24T03:15:19;67;58;
47982;PMS5003;33751;50.816;-1.214;2022-07-24T03:17:48;57;42;
47982;PMS5003;33751;50.816;-1.214;2022-07-24T03:20:16;56;43;
47982;PMS5003;33751;50.816;-1.214;2022-07-24T03:22:43;69;57;
47982;PMS5003;33751;50.816;-1.214;2022-07-24T03:25:10;67;54;
47982;PMS5003;33751;50.816;-1.214;2022-07-24T03:27:38;61;49;
47982;PMS5003;33751;50.816;-1.214;2022-07-24T03:30:06;65;50;
47982;PMS5003;33751;50.816;-1.214;2022-07-24T03:32:33;51;46;
47982;PMS5003;33751;50.816;-1.214;2022-07-24T03:35:00;57;44;
47982;PMS5003;33751;50.816;-1.214;2022-07-24T03:37:28;64;53;
47982;PMS5003;33751;50.816;-1.214;2022-07-24T03:39:55;58;42;
47982;PMS5003;33751;50.816;-1.214;2022-07-24T03:42:22;64;48;
47982;PMS5003;33751;50.816;-1.214;2022-07-24T03:44:50;55;55;
47982;PMS5003;33751;50.816;-1.214;2022-07-24T03:47:16;55;41;
47982;PMS5003;33751;50.816;-1.214;2022-07-24T03:49:43;63;49;
47982;PMS5003;33751;50.816;-1.214;2022-07-24T03:52:10;46;46;
47982;PMS5003;33751;50.816;-1.214;2022-07-24T03:54:37;61;43;
47982;PMS5003;33751;50.816;-1.214;2022-07-24T03:57:05;66;50;
47982;PMS5003;33751;50.816;-1.214;2022-07-24T03:59:31;62;55;
47982;PMS5003;33751;50.816;-1.214;2022-07-24T04:01:59;72;60;
47982;PMS5003;33751;50.816;-1.214;2022-07-24T04:04:26;66;51;
47982;PMS5003;33751;50.816;-1.214;2022-07-24T04:06:53;64;49;
47982;PMS5003;33751;50.816;-1.214;2022-07-24T04:09:20;58;42;
47982;PMS5003;33751;50.816;-1.214;2022-07-24T04:11:47;70;55;
47982;PMS5003;33751;50.816;-1.214;2022-07-24T04:14:14;68;57;
47982;PMS5003;33751;50.816;-1.214;2022-07-24T04:16:41;58;52;
47982;PMS5003;33751;50.816;-1.214;2022-07-24T04:19:07;60;46;
47982;PMS5003;33751;50.816;-1.214;2022-07-24T04:21:34;62;49;
47982;PMS5003;33751;50.816;-1.214;2022-07-24T04:24:01;64;48;
47982;PMS5003;33751;50.816;-1.214;2022-07-24T04:26:28;53;47;
47982;PMS5003;33751;50.816;-1.214;2022-07-24T04:28:55;60;48;
47982;PMS5003;33751;50.816;-1.214;2022-07-24T04:31:22;60;46;
47982;PMS5003;33751;50.816;-1.214;2022-07-24T04:33:49;58;51;
47982;PMS5003;33751;50.816;-1.214;2022-07-24T04:36:16;63;47;
47982;PMS5003;33751;50.816;-1.214;2022-07-24T04:38:43;51;44;
47982;PMS5003;33751;50.816;-1.214;2022-07-24T04:41:10;43;42;
47982;PMS5003;33751;50.816;-1.214;2022-07-24T04:43:37;61;47;
47982;PMS5003;33751;50.816;-1.214;2022-07-24T04:46:05;57;46;
47982;PMS5003;33751;50.816;-1.214;2022-07-24T04:48:31;59;46;
47982;PMS5003;33751;50.816;-1.214;2022-07-24T04:50:58;62;54;
47982;PMS5003;33751;50.816;-1.214;2022-07-24T04:53:25;59;45;
47982;PMS5003;33751;50.816;-1.214;2022-07-24T04:55:52;55;41;
47982;PMS5003;33751;50.816;-1.214;2022-07-24T04:58:19;58;46;
47982;PMS5003;33751;50.816;-1.214;2022-07-24T05:00:45;69;54;
47982;PMS5003;33751;50.816;-1.214;2022-07-24T05:03:12;68;54;
47982;PMS5003;33751;50.816;-1.214;2022-07-24T05:05:39;49;49;
47982;PMS5003;33751;50.816;-1.214;2022-07-24T05:08:06;49;37;
47982;PMS5003;33751;50.816;-1.214;2022-07-24T05:10:33;66;57;
47982;PMS5003;33751;50.816;-1.214;2022-07-24T05:12:59;63;50;
47982;PMS5003;33751;50.816;-1.214;2022-07-24T05:15:27;52;45;
47982;PMS5003;33751;50.816;-1.214;2022-07-24T05:17:54;55;41;
47982;PMS5003;33751;50.816;-1.214;2022-07-24T05:20:21;57;47;
47982;PMS5003;33751;50.816;-1.214;2022-07-24T05:22:48;55;46;
47982;PMS5003;33751;50.816;-1.214;2022-07-24T05:25:15;40;40;
47982;PMS5003;33751;50.816;-1.214;2022-07-24T05:27:42;58;44;
47982;PMS5003;33751;50.816;-1.214;2022-07-24T05:30:09;52;51;
47982;PMS5003;33751;50.816;-1.214;2022-07-24T05:32:37;49;40;
47982;PMS5003;33751;50.816;-1.214;2022-07-24T05:35:04;61;48;
47982;PMS5003;33751;50.816;-1.214;2022-07-24T05:37:32;53;43;
47982;PMS5003;33751;50.816;-1.214;2022-07-24T05:39:59;53;49;
47982;PMS5003;33751;50.816;-1.214;2022-07-24T05:42:26;39;34;
47982;PMS5003;33751;50.816;-1.214;2022-07-24T05:44:53;56;39;
47982;PMS5003;33751;50.816;-1.214;2022-07-24T05:47:19;55;43;
47982;PMS5003;33751;50.816;-1.214;2022-07-24T05:49:46;56;42;
47982;PMS5003;33751;50.816;-1.214;2022-07-24T05:52:13;52;41;
47982;PMS5003;33751;50.816;-1.214;2022-07-24T05:54:41;58;43;
47982;PMS5003;33751;50.816;-1.214;2022-07-24T05:57:07;39;39;
47982;PMS5003;33751;50.816;-1.214;2022-07-24T05:59:34;56;51;
47982;PMS5003;33751;50.816;-1.214;2022-07-24T06:02:02;56;45;
47982;PMS5003;33751;50.816;-1.214;2022-07-24T06:04:29;43;41;
47982;PMS5003;33751;50.816;-1.214;2022-07-24T06:06:57;57;42;
47982;PMS5003;33751;50.816;-1.214;2022-07-24T06:09:23;50;50;
47982;PMS5003;33751;50.816;-1.214;2022-07-24T06:11:50;60;46;
47982;PMS5003;33751;50.816;-1.214;2022-07-24T06:14:18;48;38;
47982;PMS5003;33751;50.816;-1.214;2022-07-24T06:16:46;53;42;
47982;PMS5003;33751;50.816;-1.214;2022-07-24T06:19:13;48;43;
47982;PMS5003;33751;50.816;-1.214;2022-07-24T06:21:40;36;36;
47982;PMS5003;33751;50.816;-1.214;2022-07-24T06:24:07;45;45;
47982;PMS5003;33751;50.816;-1.214;2022-07-24T06:26:34;51;35;
47982;PMS5003;33751;50.816;-1.214;2022-07-24T06:29:01;49;39;
47982;PMS5003;33751;50.816;-1.214;2022-07-24T06:31:29;44;36;
47982;PMS5003;33751;50.816;-1.214;2022-07-24T06:33:56;53;40;
47982;PMS5003;33751;50.816;-1.214;2022-07-24T06:36:23;49;30;
47982;PMS5003;33751;50.816;-1.214;2022-07-24T06:38:50;39;39;
47982;PMS5003;33751;50.816;-1.214;2022-07-24T06:41:17;44;41;
47982;PMS5003;33751;50.816;-1.214;2022-07-24T06:43:45;43;43;
47982;PMS5003;33751;50.816;-1.214;2022-07-24T06:46:11;52;41;
47982;PMS5003;33751;50.816;-1.214;2022-07-24T06:48:38;39;39;
47982;PMS5003;33751;50.816;-1.214;2022-07-24T06:51:05;53;36;
47982;PMS5003;33751;50.816;-1.214;2022-07-24T06:53:33;60;42;
47982;PMS5003;33751;50.816;-1.214;2022-07-24T06:56:00;39;33;
47982;PMS5003;33751;50.816;-1.214;2022-07-24T06:58:27;44;38;
47982;PMS5003;33751;50.816;-1.214;2022-07-24T07:00:55;40;34;
47982;PMS5003;33751;50.816;-1.214;2022-07-24T07:03:22;46;31;
47982;PMS5003;33751;50.816;-1.214;2022-07-24T07:05:48;49;39;
47982;PMS5003;33751;50.816;-1.214;2022-07-24T07:08:15;33;32;
47982;PMS5003;33751;50.816;-1.214;2022-07-24T07:10:42;48;38;
47982;PMS5003;33751;50.816;-1.214;2022-07-24T07:13:09;42;35;
47982;PMS5003;33751;50.816;-1.214;2022-07-24T07:15:36;46;34;
47982;PMS5003;33751;50.816;-1.214;2022-07-24T07:18:03;43;34;
47982;PMS5003;33751;50.816;-1.214;2022-07-24T07:20:31;36;27;
47982;PMS5003;33751;50.816;-1.214;2022-07-24T07:22:58;29;18;
47982;PMS5003;33751;50.816;-1.214;2022-07-24T07:25:25;39;25;
47982;PMS5003;33751;50.816;-1.214;2022-07-24T07:27:53;44;28;
47982;PMS5003;33751;50.816;-1.214;2022-07-24T07:30:20;33;27;
47982;PMS5003;33751;50.816;-1.214;2022-07-24T07:32:46;49;36;
47982;PMS5003;33751;50.816;-1.214;2022-07-24T07:35:14;21;11;
47982;PMS5003;33751;50.816;-1.214;2022-07-24T07:37:44;29;20;
47982;PMS5003;33751;50.816;-1.214;2022-07-24T07:40:12;32;26;
47982;PMS5003;33751;50.816;-1.214;2022-07-24T07:42:39;25;19;
47982;PMS5003;33751;50.816;-1.214;2022-07-24T07:45:06;29;18;
47982;PMS5003;33751;50.816;-1.214;2022-07-24T07:47:35;13;12;
47982;PMS5003;33751;50.816;-1.214;2022-07-24T07:50:02;30;18;
47982;PMS5003;33751;50.816;-1.214;2022-07-24T07:52:30;33;20;
47982;PMS5003;33751;50.816;-1.214;2022-07-24T07:54:57;7;7;
47982;PMS5003;33751;50.816;-1.214;2022-07-24T07:57:25;36;20;
47982;PMS5003;33751;50.816;-1.214;2022-07-24T07:59:52;28;12;
47982;PMS5003;33751;50.816;-1.214;2022-07-24T08:02:19;7;4;
47982;PMS5003;33751;50.816;-1.214;2022-07-24T08:04:46;13;6;
47982;PMS5003;33751;50.816;-1.214;2022-07-24T08:07:13;20;13;
47982;PMS5003;33751;50.816;-1.214;2022-07-24T08:09:40;8;8;
47982;PMS5003;33751;50.816;-1.214;2022-07-24T08:12:07;6;6;
47982;PMS5003;33751;50.816;-1.214;2022-07-24T08:14:34;6;6;
47982;PMS5003;33751;50.816;-1.214;2022-07-24T08:17:01;4;4;
47982;PMS5003;33751;50.816;-1.214;2022-07-24T08:19:28;24;10;
47982;PMS5003;33751;50.816;-1.214;2022-07-24T08:21:55;11;8;
47982;PMS5003;33751;50.816;-1.214;2022-07-24T08:24:22;3;3;
47982;PMS5003;33751;50.816;-1.214;2022-07-24T08:26:50;17;9;
47982;PMS5003;33751;50.816;-1.214;2022-07-24T08:29:16;7;7;
47982;PMS5003;33751;50.816;-1.214;2022-07-24T08:31:43;9;9;
47982;PMS5003;33751;50.816;-1.214;2022-07-24T08:34:10;17;7;
47982;PMS5003;33751;50.816;-1.214;2022-07-24T08:36:38;21;11;
47982;PMS5003;33751;50.816;-1.214;2022-07-24T08:39:05;10;10;
47982;PMS5003;33751;50.816;-1.214;2022-07-24T08:41:31;10;10;
47982;PMS5003;33751;50.816;-1.214;2022-07-24T08:43:59;11;11;
47982;PMS5003;33751;50.816;-1.214;2022-07-24T08:46:27;15;13;
47982;PMS5003;33751;50.816;-1.214;2022-07-24T08:48:55;10;10;
47982;PMS5003;33751;50.816;-1.214;2022-07-24T08:51:27;11;11;
47982;PMS5003;33751;50.816;-1.214;2022-07-24T08:53:59;9;9;
47982;PMS5003;33751;50.816;-1.214;2022-07-24T08:56:26;19;13;
47982;PMS5003;33751;50.816;-1.214;2022-07-24T08:58:52;13;13;
47982;PMS5003;33751;50.816;-1.214;2022-07-24T09:01:19;11;11;
47982;PMS5003;33751;50.816;-1.214;2022-07-24T09:03:46;14;12;
47982;PMS5003;33751;50.816;-1.214;2022-07-24T09:06:14;18;12;
47982;PMS5003;33751;50.816;-1.214;2022-07-24T09:08:44;39;25;
47982;PMS5003;33751;50.816;-1.214;2022-07-24T09:11:24;34;20;
47982;PMS5003;33751;50.816;-1.214;2022-07-24T09:13:53;10;10;
47982;PMS5003;33751;50.816;-1.214;2022-07-24T09:16:25;22;11;
47982;PMS5003;33751;50.816;-1.214;2022-07-24T09:19:02;10;9;
47982;PMS5003;33751;50.816;-1.214;2022-07-24T09:21:32;11;11;
47982;PMS5003;33751;50.816;-1.214;2022-07-24T09:23:59;7;6;
47982;PMS5003;33751;50.816;-1.214;2022-07-24T09:26:31;23;14;
47982;PMS5003;33751;50.816;-1.214;2022-07-24T09:29:10;10;10;
47982;PMS5003;33751;50.816;-1.214;2022-07-24T09:31:49;8;8;
47982;PMS5003;33751;50.816;-1.214;2022-07-24T09:34:17;9;9;
47982;PMS5003;33751;50.816;-1.214;2022-07-24T09:36:50;30;23;
47982;PMS5003;33751;50.816;-1.214;2022-07-24T09:39:22;11;11;
47982;PMS5003;33751;50.816;-1.214;2022-07-24T09:41:50;29;14;
47982;PMS5003;33751;50.816;-1.214;2022-07-24T09:44:18;12;12;
47982;PMS5003;33751;50.816;-1.214;2022-07-24T09:46:46;11;10;
47982;PMS5003;33751;50.816;-1.214;2022-07-24T09:49:18;25;11;
47982;PMS5003;33751;50.816;-1.214;2022-07-24T09:51:46;24;8;
47982;PMS5003;33751;50.816;-1.214;2022-07-24T09:54:36;32;17;
47982;PMS5003;33751;50.816;-1.214;2022-07-24T09:57:21;8;8;
47982;PMS5003;33751;50.816;-1.214;2022-07-24T09:59:50;8;7;
47982;PMS5003;33751;50.816;-1.214;2022-07-24T10:02:18;8;8;
47982;PMS5003;33751;50.816;-1.214;2022-07-24T10:04:47;22;10;
47982;PMS5003;33751;50.816;-1.214;2022-07-24T10:07:16;8;8;
47982;PMS5003;33751;50.816;-1.214;2022-07-24T10:09:45;9;9;
47982;PMS5003;33751;50.816;-1.214;2022-07-24T10:12:14;26;13;
47982;PMS5003;33751;50.816;-1.214;2022-07-24T10:14:44;9;9;
47982;PMS5003;33751;50.816;-1.214;2022-07-24T10:17:12;25;14;
47982;PMS5003;33751;50.816;-1.214;2022-07-24T10:19:41;8;8;
47982;PMS5003;33751;50.816;-1.214;2022-07-24T10:22:09;8;8;
47982;PMS5003;33751;50.816;-1.214;2022-07-24T10:24:45;9;9;
47982;PMS5003;33751;50.816;-1.214;2022-07-24T10:27:25;9;6;
47982;PMS5003;33751;50.816;-1.214;2022-07-24T10:29:55;4;4;
47982;PMS5003;33751;50.816;-1.214;2022-07-24T10:32:24;6;6;
47982;PMS5003;33751;50.816;-1.214;2022-07-24T10:34:58;7;7;
47982;PMS5003;33751;50.816;-1.214;2022-07-24T10:37:34;49;33;
47982;PMS5003;33751;50.816;-1.214;2022-07-24T10:40:13;66;53;
47982;PMS5003;33751;50.816;-1.214;2022-07-24T10:43:22;55;43;
47982;PMS5003;33751;50.816;-1.214;2022-07-24T10:46:10;58;52;
47982;PMS5003;33751;50.816;-1.214;2022-07-24T10:48:37;71;56;
47982;PMS5003;33751;50.816;-1.214;2022-07-24T10:51:06;51;48;
47982;PMS5003;33751;50.816;-1.214;2022-07-24T10:53:51;63;50;
47982;PMS5003;33751;50.816;-1.214;2022-07-24T10:56:21;53;47;
47982;PMS5003;33751;50.816;-1.214;2022-07-24T10:58:51;52;39;
47982;PMS5003;33751;50.816;-1.214;2022-07-24T11:01:51;40;37;
47982;PMS5003;33751;50.816;-1.214;2022-07-24T11:04:26;47;36;
47982;PMS5003;33751;50.816;-1.214;2022-07-24T11:06:56;35;35;
47982;PMS5003;33751;50.816;-1.214;2022-07-24T11:09:41;48;45;
47982;PMS5003;33751;50.816;-1.214;2022-07-24T11:12:25;45;34;
47982;PMS5003;33751;50.816;-1.214;2022-07-24T11:14:57;48;37;
47982;PMS5003;33751;50.816;-1.214;2022-07-24T11:17:41;47;31;
47982;PMS5003;33751;50.816;-1.214;2022-07-24T11:20:10;35;35;
47982;PMS5003;33751;50.816;-1.214;2022-07-24T11:22:40;45;39;
47982;PMS5003;33751;50.816;-1.214;2022-07-24T11:25:09;41;41;
47982;PMS5003;33751;50.816;-1.214;2022-07-24T11:27:41;56;40;
47982;PMS5003;33751;50.816;-1.214;2022-07-24T11:30:10;56;43;
47982;PMS5003;33751;50.816;-1.214;2022-07-24T11:32:38;47;33;
47982;PMS5003;33751;50.816;-1.214;2022-07-24T11:35:07;56;41;
47982;PMS5003;33751;50.816;-1.214;2022-07-24T11:37:35;50;42;
47982;PMS5003;33751;50.816;-1.214;2022-07-24T11:40:03;50;38;
47982;PMS5003;33751;50.816;-1.214;2022-07-24T11:42:32;39;39;
47982;PMS5003;33751;50.816;-1.214;2022-07-24T11:45:00;51;34;
47982;PMS5003;33751;50.816;-1.214;2022-07-24T11:47:27;37;31;
47982;PMS5003;33751;50.816;-1.214;2022-07-24T11:49:56;37;34;
47982;PMS5003;33751;50.816;-1.214;2022-07-24T11:52:24;55;39;
47982;PMS5003;33751;50.816;-1.214;2022-07-24T11:54:54;49;35;
47982;PMS5003;33751;50.816;-1.214;2022-07-24T11:57:23;35;24;
47982;PMS5003;33751;50.816;-1.214;2022-07-24T11:59:52;50;34;
47982;PMS5003;33751;50.816;-1.214;2022-07-24T12:02:19;24;18;
47982;PMS5003;33751;50.816;-1.214;2022-07-24T12:04:47;24;24;
47982;PMS5003;33751;50.816;-1.214;2022-07-24T12:07:17;39;24;
47982;PMS5003;33751;50.816;-1.214;2022-07-24T12:09:47;31;30;
47982;PMS5003;33751;50.816;-1.214;2022-07-24T12:12:17;20;17;
47982;PMS5003;33751;50.816;-1.214;2022-07-24T12:14:45;16;16;
47982;PMS5003;33751;50.816;-1.214;2022-07-24T12:17:12;33;19;
47982;PMS5003;33751;50.816;-1.214;2022-07-24T12:19:39;21;16;
47982;PMS5003;33751;50.816;-1.214;2022-07-24T12:22:06;33;23;
47982;PMS5003;33751;50.816;-1.214;2022-07-24T12:24:33;18;18;
47982;PMS5003;33751;50.816;-1.214;2022-07-24T12:27:00;9;9;
47982;PMS5003;33751;50.816;-1.214;2022-07-24T12:29:27;16;16;
47982;PMS5003;33751;50.816;-1.214;2022-07-24T12:32:12;11;11;
47982;PMS5003;33751;50.816;-1.214;2022-07-24T12:34:42;8;8;
47982;PMS5003;33751;50.816;-1.214;2022-07-24T12:37:13;12;10;
47982;PMS5003;33751;50.816;-1.214;2022-07-24T12:39:44;10;9;
47982;PMS5003;33751;50.816;-1.214;2022-07-24T12:42:11;6;6;
47982;PMS5003;33751;50.816;-1.214;2022-07-24T12:44:39;7;7;
47982;PMS5003;33751;50.816;-1.214;2022-07-24T12:47:07;7;7;
47982;PMS5003;33751;50.816;-1.214;2022-07-24T12:49:39;5;5;
47982;PMS5003;33751;50.816;-1.214;2022-07-24T12:52:18;23;9;
47982;PMS5003;33751;50.816;-1.214;2022-07-24T12:54:46;4;4;
47982;PMS5003;33751;50.816;-1.214;2022-07-24T12:57:13;5;5;
47982;PMS5003;33751;50.816;-1.214;2022-07-24T12:59:41;5;5;
47982;PMS5003;33751;50.816;-1.214;2022-07-24T13:02:10;12;4;
47982;PMS5003;33751;50.816;-1.214;2022-07-24T13:04:40;4;4;
47982;PMS5003;33751;50.816;-1.214;2022-07-24T13:07:08;21;6;
47982;PMS5003;33751;50.816;-1.214;2022-07-24T13:09:35;7;7;
47982;PMS5003;33751;50.816;-1.214;2022-07-24T13:12:02;26;11;
47982;PMS5003;33751;50.816;-1.214;2022-07-24T13:14:31;18;9;
47982;PMS5003;33751;50.816;-1.214;2022-07-24T13:17:01;11;6;
47982;PMS5003;33751;50.816;-1.214;2022-07-24T13:19:30;4;4;
47982;PMS5003;33751;50.816;-1.214;2022-07-24T13:21:56;6;5;
47982;PMS5003;33751;50.816;-1.214;2022-07-24T13:24:23;10;10;
47982;PMS5003;33751;50.816;-1.214;2022-07-24T13:26:51;14;5;
47982;PMS5003;33751;50.816;-1.214;2022-07-24T13:29:19;28;9;
47982;PMS5003;33751;50.816;-1.214;2022-07-24T13:31:47;22;8;
47982;PMS5003;33751;50.816;-1.214;2022-07-24T13:34:14;18;4;
47982;PMS5003;33751;50.816;-1.214;2022-07-24T13:36:40;9;9;
47982;PMS5003;33751;50.816;-1.214;2022-07-24T13:39:07;7;7;
47982;PMS5003;33751;50.816;-1.214;2022-07-24T13:41:36;9;7;
47982;PMS5003;33751;50.816;-1.214;2022-07-24T13:44:03;20;4;
47982;PMS5003;33751;50.816;-1.214;2022-07-24T13:46:32;3;3;
47982;PMS5003;33751;50.816;-1.214;2022-07-24T13:49:01;21;8;
47982;PMS5003;33751;50.816;-1.214;2022-07-24T13:51:30;19;6;
47982;PMS5003;33751;50.816;-1.214;2022-07-24T13:53:57;13;11;
47982;PMS5003;33751;50.816;-1.214;2022-07-24T13:56:24;21;5;
47982;PMS5003;33751;50.816;-1.214;2022-07-24T13:58:50;11;7;
47982;PMS5003;33751;50.816;-1.214;2022-07-24T14:01:18;11;3;
47982;PMS5003;33751;50.816;-1.214;2022-07-24T14:03:45;3;3;
47982;PMS5003;33751;50.816;-1.214;2022-07-24T14:06:12;18;3;
47982;PMS5003;33751;50.816;-1.214;2022-07-24T14:08:40;6;4;
47982;PMS5003;33751;50.816;-1.214;2022-07-24T14:11:07;7;6;
47982;PMS5003;33751;50.816;-1.214;2022-07-24T14:13:34;4;4;
47982;PMS5003;33751;50.816;-1.214;2022-07-24T14:16:01;5;5;
47982;PMS5003;33751;50.816;-1.214;2022-07-24T14:18:27;5;4;
47982;PMS5003;33751;50.816;-1.214;2022-07-24T14:20:55;4;4;
47982;PMS5003;33751;50.816;-1.214;2022-07-24T14:23:22;5;5;
47982;PMS5003;33751;50.816;-1.214;2022-07-24T14:25:49;2;2;
47982;PMS5003;33751;50.816;-1.214;2022-07-24T14:28:16;4;4;
47982;PMS5003;33751;50.816;-1.214;2022-07-24T14:30:43;4;4;
47982;PMS5003;33751;50.816;-1.214;2022-07-24T14:33:10;5;5;
47982;PMS5003;33751;50.816;-1.214;2022-07-24T14:35:37;5;5;
47982;PMS5003;33751;50.816;-1.214;2022-07-24T14:38:04;5;3;
47982;PMS5003;33751;50.816;-1.214;2022-07-24T14:40:31;3;3;
47982;PMS5003;33751;50.816;-1.214;2022-07-24T14:42:59;5;5;
47982;PMS5003;33751;50.816;-1.214;2022-07-24T14:45:26;6;6;
47982;PMS5003;33751;50.816;-1.214;2022-07-24T14:47:53;4;4;
47982;PMS5003;33751;50.816;-1.214;2022-07-24T14:50:19;5;5;
47982;PMS5003;33751;50.816;-1.214;2022-07-24T14:52:47;9;9;
47982;PMS5003;33751;50.816;-1.214;2022-07-24T14:55:14;17;6;
47982;PMS5003;33751;50.816;-1.214;2022-07-24T14:57:41;9;9;
47982;PMS5003;33751;50.816;-1.214;2022-07-24T15:00:08;4;4;
47982;PMS5003;33751;50.816;-1.214;2022-07-24T15:02:36;8;5;
47982;PMS5003;33751;50.816;-1.214;2022-07-24T15:05:04;3;3;
47982;PMS5003;33751;50.816;-1.214;2022-07-24T15:07:31;21;10;
47982;PMS5003;33751;50.816;-1.214;2022-07-24T15:09:59;6;6;
47982;PMS5003;33751;50.816;-1.214;2022-07-24T15:12:26;20;9;
47982;PMS5003;33751;50.816;-1.214;2022-07-24T15:14:52;13;5;
47982;PMS5003;33751;50.816;-1.214;2022-07-24T15:17:19;8;8;
47982;PMS5003;33751;50.816;-1.214;2022-07-24T15:19:46;11;5;
47982;PMS5003;33751;50.816;-1.214;2022-07-24T15:22:13;10;10;
47982;PMS5003;33751;50.816;-1.214;2022-07-24T15:24:41;21;8;
47982;PMS5003;33751;50.816;-1.214;2022-07-24T15:27:08;4;4;
47982;PMS5003;33751;50.816;-1.214;2022-07-24T15:29:35;7;7;
47982;PMS5003;33751;50.816;-1.214;2022-07-24T15:32:01;17;10;
47982;PMS5003;33751;50.816;-1.214;2022-07-24T15:34:28;16;16;
47982;PMS5003;33751;50.816;-1.214;2022-07-24T15:36:56;8;8;
47982;PMS5003;33751;50.816;-1.214;2022-07-24T15:39:23;29;20;
47982;PMS5003;33751;50.816;-1.214;2022-07-24T15:41:50;24;14;
47982;PMS5003;33751;50.816;-1.214;2022-07-24T15:44:17;21;8;
47982;PMS5003;33751;50.816;-1.214;2022-07-24T15:46:44;18;18;
47982;PMS5003;33751;50.816;-1.214;2022-07-24T15:49:11;31;17;
47982;PMS5003;33751;50.816;-1.214;2022-07-24T15:51:38;6;6;
47982;PMS5003;33751;50.816;-1.214;2022-07-24T15:54:05;17;14;
47982;PMS5003;33751;50.816;-1.214;2022-07-24T15:56:32;27;11;
47982;PMS5003;33751;50.816;-1.214;2022-07-24T15:58:59;41;24;
47982;PMS5003;33751;50.816;-1.214;2022-07-24T16:01:26;28;24;
47982;PMS5003;33751;50.816;-1.214;2022-07-24T16:03:53;14;14;
47982;PMS5003;33751;50.816;-1.214;2022-07-24T16:06:20;49;32;
47982;PMS5003;33751;50.816;-1.214;2022-07-24T16:08:47;29;16;
47982;PMS5003;33751;50.816;-1.214;2022-07-24T16:11:14;24;10;
47982;PMS5003;33751;50.816;-1.214;2022-07-24T16:13:41;26;19;
47982;PMS5003;33751;50.816;-1.214;2022-07-24T16:16:08;38;26;